sensor_id;sensor_type;location;lat;lon;timestamp;temperature;humidity
21608;DHT22;10966;51.076;3.782;2022-07-23T00:01:01;17.50;99.90
21608;DHT22;10966;51.076;3.782;2022-07-23T00:03:27;17.50;99.90
21608;DHT22;10966;51.076;3.782;2022-07-23T00:05:53;17.40;99.90
21608;DHT22;10966;51.076;3.782;2022-07-23T00:08:19;17.40;99.90
21608;DHT22;10966;51.076;3.782;2022-07-23T00:10:45;17.40;99.90
21608;DHT22;10966;51.076;3.782;2022-07-23T00:13:10;17.40;99.90
21608;DHT22;10966;51.076;3.782;2022-07-23T00:15:36;17.40;99.90
21608;DHT22;10966;51.076;3.782;2022-07-23T00:18:02;17.40;99.90
21608;DHT22;10966;51.076;3.782;2022-07-23T00:20:27;17.40;99.90
21608;DHT22;10966;51.076;3.782;2022-07-23T00:22:54;17.50;99.90
21608;DHT22;10966;51.076;3.782;2022-07-23T00:25:22;17.40;99.90
21608;DHT22;10966;51.076;3.782;2022-07-23T00:27:47;17.30;99.90
21608;DHT22;10966;51.076;3.782;2022-07-23T00:30:13;17.30;99.90
21608;DHT22;10966;51.076;3.782;2022-07-23T00:32:50;17.30;99.90
21608;DHT22;10966;51.076;3.782;2022-07-23T00:35:16;17.20;99.90
21608;DHT22;10966;51.076;3.782;2022-07-23T00:37:44;17.30;99.90
21608;DHT22;10966;51.076;3.782;2022-07-23T00:40:10;17.40;99.90
21608;DHT22;10966;51.076;3.782;2022-07-23T00:42:37;17.40;99.90
21608;DHT22;10966;51.076;3.782;2022-07-23T00:45:03;17.40;99.90
21608;DHT22;10966;51.076;3.782;2022-07-23T00:47:29;17.10;99.90
21608;DHT22;10966;51.076;3.782;2022-07-23T00:49:55;17.10;99.90
21608;DHT22;10966;51.076;3.782;2022-07-23T00:52:20;17.00;99.90
21608;DHT22;10966;51.076;3.782;2022-07-23T00:54:46;17.00;99.90
21608;DHT22;10966;51.076;3.782;2022-07-23T00:57:12;17.10;99.90
21608;DHT22;10966;51.076;3.782;2022-07-23T00:59:39;17.10;99.90
21608;DHT22;10966;51.076;3.782;2022-07-23T01:02:05;17.10;99.90
21608;DHT22;10966;51.076;3.782;2022-07-23T01:04:30;17.10;99.90
21608;DHT22;10966;51.076;3.782;2022-07-23T01:06:56;16.90;99.90
21608;DHT22;10966;51.076;3.782;2022-07-23T01:09:22;16.80;99.90
21608;DHT22;10966;51.076;3.782;2022-07-23T01:11:48;16.80;99.90
21608;DHT22;10966;51.076;3.782;2022-07-23T01:14:17;16.70;99.90
21608;DHT22;10966;51.076;3.782;2022-07-23T01:16:44;16.70;99.90
21608;DHT22;10966;51.076;3.782;2022-07-23T01:19:10;16.70;99.90
21608;DHT22;10966;51.076;3.782;2022-07-23T01:21:39;16.80;99.90
21608;DHT22;10966;51.076;3.782;2022-07-23T01:24:05;16.90;99.90
21608;DHT22;10966;51.076;3.782;2022-07-23T01:26:31;16.80;99.90
21608;DHT22;10966;51.076;3.782;2022-07-23T01:28:57;16.90;99.90
21608;DHT22;10966;51.076;3.782;2022-07-23T01:31:22;16.80;99.90
21608;DHT22;10966;51.076;3.782;2022-07-23T01:33:48;16.60;99.90
21608;DHT22;10966;51.076;3.782;2022-07-23T01:36:14;16.50;99.90
21608;DHT22;10966;51.076;3.782;2022-07-23T01:38:40;16.50;99.90
21608;DHT22;10966;51.076;3.782;2022-07-23T01:41:05;16.50;99.90
21608;DHT22;10966;51.076;3.782;2022-07-23T01:43:31;16.50;99.90
21608;DHT22;10966;51.076;3.782;2022-07-23T01:45:57;16.50;99.90
21608;DHT22;10966;51.076;3.782;2022-07-23T01:48:22;16.60;99.90
21608;DHT22;10966;51.076;3.782;2022-07-23T01:50:48;16.70;99.90
21608;DHT22;10966;51.076;3.782;2022-07-23T01:53:14;16.70;99.90
21608;DHT22;10966;51.076;3.782;2022-07-23T01:55:41;16.60;99.90
21608;DHT22;10966;51.076;3.782;2022-07-23T01:58:06;16.50;99.90
21608;DHT22;10966;51.076;3.782;2022-07-23T02:00:32;16.50;99.90
21608;DHT22;10966;51.076;3.782;2022-07-23T02:02:58;16.40;99.90
21608;DHT22;10966;51.076;3.782;2022-07-23T02:05:27;16.40;99.90
21608;DHT22;10966;51.076;3.782;2022-07-23T02:07:57;16.30;99.90
21608;DHT22;10966;51.076;3.782;2022-07-23T02:10:24;16.10;99.90
21608;DHT22;10966;51.076;3.782;2022-07-23T02:12:49;16.20;99.90
21608;DHT22;10966;51.076;3.782;2022-07-23T02:15:15;16.30;99.90
21608;DHT22;10966;51.076;3.782;2022-07-23T02:17:41;16.30;99.90
21608;DHT22;10966;51.076;3.782;2022-07-23T02:20:10;16.40;99.90
21608;DHT22;10966;51.076;3.782;2022-07-23T02:22:36;16.30;99.90
21608;DHT22;10966;51.076;3.782;2022-07-23T02:25:04;16.20;99.90
21608;DHT22;10966;51.076;3.782;2022-07-23T02:27:29;16.20;99.90
21608;DHT22;10966;51.076;3.782;2022-07-23T02:29:55;16.10;99.90
21608;DHT22;10966;51.076;3.782;2022-07-23T02:32:21;16.20;99.90
21608;DHT22;10966;51.076;3.782;2022-07-23T02:34:47;16.20;99.90
21608;DHT22;10966;51.076;3.782;2022-07-23T02:37:13;16.10;99.90
21608;DHT22;10966;51.076;3.782;2022-07-23T02:39:39;16.10;99.90
21608;DHT22;10966;51.076;3.782;2022-07-23T02:42:05;16.10;99.90
21608;DHT22;10966;51.076;3.782;2022-07-23T02:44:31;16.00;99.90
21608;DHT22;10966;51.076;3.782;2022-07-23T02:46:57;16.10;99.90
21608;DHT22;10966;51.076;3.782;2022-07-23T02:49:23;16.00;99.90
21608;DHT22;10966;51.076;3.782;2022-07-23T02:51:48;16.00;99.90
21608;DHT22;10966;51.076;3.782;2022-07-23T02:54:14;16.00;99.90
21608;DHT22;10966;51.076;3.782;2022-07-23T02:56:39;15.90;99.90
21608;DHT22;10966;51.076;3.782;2022-07-23T02:59:05;15.90;99.90
21608;DHT22;10966;51.076;3.782;2022-07-23T03:01:31;15.90;99.90
21608;DHT22;10966;51.076;3.782;2022-07-23T03:03:56;15.70;99.90
21608;DHT22;10966;51.076;3.782;2022-07-23T03:06:22;15.70;99.90
21608;DHT22;10966;51.076;3.782;2022-07-23T03:08:48;15.80;99.90
21608;DHT22;10966;51.076;3.782;2022-07-23T03:11:13;15.80;99.90
21608;DHT22;10966;51.076;3.782;2022-07-23T03:13:40;15.80;99.90
21608;DHT22;10966;51.076;3.782;2022-07-23T03:16:06;15.70;99.90
21608;DHT22;10966;51.076;3.782;2022-07-23T03:18:32;15.80;99.90
21608;DHT22;10966;51.076;3.782;2022-07-23T03:20:58;15.90;99.90
21608;DHT22;10966;51.076;3.782;2022-07-23T03:23:24;15.90;99.90
21608;DHT22;10966;51.076;3.782;2022-07-23T03:25:50;15.70;99.90
21608;DHT22;10966;51.076;3.782;2022-07-23T03:28:16;15.70;99.90
21608;DHT22;10966;51.076;3.782;2022-07-23T03:30:43;15.60;99.90
21608;DHT22;10966;51.076;3.782;2022-07-23T03:33:09;15.60;99.90
21608;DHT22;10966;51.076;3.782;2022-07-23T03:35:34;15.50;99.90
21608;DHT22;10966;51.076;3.782;2022-07-23T03:38:00;15.40;99.90
21608;DHT22;10966;51.076;3.782;2022-07-23T03:40:26;15.40;99.90
21608;DHT22;10966;51.076;3.782;2022-07-23T03:42:51;15.40;99.90
21608;DHT22;10966;51.076;3.782;2022-07-23T03:45:17;15.40;99.90
21608;DHT22;10966;51.076;3.782;2022-07-23T03:47:43;15.40;99.90
21608;DHT22;10966;51.076;3.782;2022-07-23T03:50:10;15.40;99.90
21608;DHT22;10966;51.076;3.782;2022-07-23T03:52:36;15.40;99.90
21608;DHT22;10966;51.076;3.782;2022-07-23T03:55:02;15.50;99.90
21608;DHT22;10966;51.076;3.782;2022-07-23T03:57:28;15.50;99.90
21608;DHT22;10966;51.076;3.782;2022-07-23T03:59:54;15.60;99.90
21608;DHT22;10966;51.076;3.782;2022-07-23T04:02:19;15.60;99.90
21608;DHT22;10966;51.076;3.782;2022-07-23T04:04:45;15.50;99.90
21608;DHT22;10966;51.076;3.782;2022-07-23T04:07:12;15.60;99.90
21608;DHT22;10966;51.076;3.782;2022-07-23T04:09:38;15.50;99.90
21608;DHT22;10966;51.076;3.782;2022-07-23T04:12:06;15.60;99.90
21608;DHT22;10966;51.076;3.782;2022-07-23T04:14:32;15.60;99.90
21608;DHT22;10966;51.076;3.782;2022-07-23T04:16:59;15.60;99.90
21608;DHT22;10966;51.076;3.782;2022-07-23T04:19:25;15.70;99.90
21608;DHT22;10966;51.076;3.782;2022-07-23T04:21:51;15.60;99.90
21608;DHT22;10966;51.076;3.782;2022-07-23T04:24:17;15.60;99.90
21608;DHT22;10966;51.076;3.782;2022-07-23T04:26:43;15.80;99.90
21608;DHT22;10966;51.076;3.782;2022-07-23T04:29:09;15.70;99.90
21608;DHT22;10966;51.076;3.782;2022-07-23T04:31:34;15.80;99.90
21608;DHT22;10966;51.076;3.782;2022-07-23T04:34:00;16.00;99.90
21608;DHT22;10966;51.076;3.782;2022-07-23T04:36:25;16.00;99.90
21608;DHT22;10966;51.076;3.782;2022-07-23T04:38:51;16.10;99.90
21608;DHT22;10966;51.076;3.782;2022-07-23T04:41:17;16.10;99.90
21608;DHT22;10966;51.076;3.782;2022-07-23T04:43:42;16.10;99.90
21608;DHT22;10966;51.076;3.782;2022-07-23T04:46:08;16.00;99.90
21608;DHT22;10966;51.076;3.782;2022-07-23T04:48:35;15.90;99.90
21608;DHT22;10966;51.076;3.782;2022-07-23T04:51:01;15.90;99.90
21608;DHT22;10966;51.076;3.782;2022-07-23T04:53:27;15.80;99.90
21608;DHT22;10966;51.076;3.782;2022-07-23T04:55:53;15.90;99.90
21608;DHT22;10966;51.076;3.782;2022-07-23T04:58:18;15.90;99.90
21608;DHT22;10966;51.076;3.782;2022-07-23T05:00:44;16.00;99.90
21608;DHT22;10966;51.076;3.782;2022-07-23T05:03:10;16.10;99.90
21608;DHT22;10966;51.076;3.782;2022-07-23T05:05:35;16.20;99.90
21608;DHT22;10966;51.076;3.782;2022-07-23T05:08:01;16.20;99.90
21608;DHT22;10966;51.076;3.782;2022-07-23T05:10:27;16.30;99.90
21608;DHT22;10966;51.076;3.782;2022-07-23T05:12:53;16.50;99.90
21608;DHT22;10966;51.076;3.782;2022-07-23T05:15:18;16.60;99.90
21608;DHT22;10966;51.076;3.782;2022-07-23T05:17:44;16.90;99.90
21608;DHT22;10966;51.076;3.782;2022-07-23T05:20:10;17.00;99.90
21608;DHT22;10966;51.076;3.782;2022-07-23T05:22:36;17.00;99.90
21608;DHT22;10966;51.076;3.782;2022-07-23T05:25:01;16.80;99.90
21608;DHT22;10966;51.076;3.782;2022-07-23T05:27:27;16.80;99.90
21608;DHT22;10966;51.076;3.782;2022-07-23T05:29:53;16.90;99.90
21608;DHT22;10966;51.076;3.782;2022-07-23T05:32:18;16.90;99.90
21608;DHT22;10966;51.076;3.782;2022-07-23T05:34:44;17.00;99.90
21608;DHT22;10966;51.076;3.782;2022-07-23T05:37:09;17.30;99.90
21608;DHT22;10966;51.076;3.782;2022-07-23T05:39:35;17.40;99.90
21608;DHT22;10966;51.076;3.782;2022-07-23T05:42:01;17.50;99.90
21608;DHT22;10966;51.076;3.782;2022-07-23T05:44:27;17.60;99.90
21608;DHT22;10966;51.076;3.782;2022-07-23T05:46:53;17.70;99.90
21608;DHT22;10966;51.076;3.782;2022-07-23T05:49:18;17.70;99.90
21608;DHT22;10966;51.076;3.782;2022-07-23T05:51:44;17.80;99.90
21608;DHT22;10966;51.076;3.782;2022-07-23T05:54:10;18.00;99.90
21608;DHT22;10966;51.076;3.782;2022-07-23T05:56:36;18.00;99.90
21608;DHT22;10966;51.076;3.782;2022-07-23T05:59:02;18.10;99.90
21608;DHT22;10966;51.076;3.782;2022-07-23T06:01:27;18.00;99.90
21608;DHT22;10966;51.076;3.782;2022-07-23T06:03:53;18.10;99.90
21608;DHT22;10966;51.076;3.782;2022-07-23T06:06:19;18.10;99.90
21608;DHT22;10966;51.076;3.782;2022-07-23T06:08:44;18.30;99.90
21608;DHT22;10966;51.076;3.782;2022-07-23T06:11:10;18.30;99.90
21608;DHT22;10966;51.076;3.782;2022-07-23T06:13:36;18.30;99.90
21608;DHT22;10966;51.076;3.782;2022-07-23T06:16:02;18.10;99.90
21608;DHT22;10966;51.076;3.782;2022-07-23T06:18:28;18.20;99.90
21608;DHT22;10966;51.076;3.782;2022-07-23T06:20:53;18.40;99.90
21608;DHT22;10966;51.076;3.782;2022-07-23T06:23:20;18.20;99.90
21608;DHT22;10966;51.076;3.782;2022-07-23T06:25:46;18.20;99.90
21608;DHT22;10966;51.076;3.782;2022-07-23T06:28:11;18.30;99.90
21608;DHT22;10966;51.076;3.782;2022-07-23T06:30:37;18.30;99.90
21608;DHT22;10966;51.076;3.782;2022-07-23T06:33:03;18.50;99.90
21608;DHT22;10966;51.076;3.782;2022-07-23T06:35:29;18.70;99.90
21608;DHT22;10966;51.076;3.782;2022-07-23T06:37:54;18.70;99.90
21608;DHT22;10966;51.076;3.782;2022-07-23T06:40:20;18.80;99.90
21608;DHT22;10966;51.076;3.782;2022-07-23T06:42:46;18.90;99.90
21608;DHT22;10966;51.076;3.782;2022-07-23T06:45:11;19.00;99.90
21608;DHT22;10966;51.076;3.782;2022-07-23T06:47:37;19.10;99.90
21608;DHT22;10966;51.076;3.782;2022-07-23T06:50:04;19.30;99.90
21608;DHT22;10966;51.076;3.782;2022-07-23T06:52:30;19.40;99.90
21608;DHT22;10966;51.076;3.782;2022-07-23T06:54:55;19.40;99.90
21608;DHT22;10966;51.076;3.782;2022-07-23T06:57:21;19.50;99.90
21608;DHT22;10966;51.076;3.782;2022-07-23T06:59:47;19.30;99.90
21608;DHT22;10966;51.076;3.782;2022-07-23T07:02:12;19.30;99.90
21608;DHT22;10966;51.076;3.782;2022-07-23T07:04:38;19.20;99.90
21608;DHT22;10966;51.076;3.782;2022-07-23T07:07:04;19.20;99.90
21608;DHT22;10966;51.076;3.782;2022-07-23T07:09:29;19.20;99.90
21608;DHT22;10966;51.076;3.782;2022-07-23T07:11:55;19.30;99.90
21608;DHT22;10966;51.076;3.782;2022-07-23T07:14:21;19.20;99.90
21608;DHT22;10966;51.076;3.782;2022-07-23T07:16:47;19.20;99.90
21608;DHT22;10966;51.076;3.782;2022-07-23T07:19:13;19.40;99.90
21608;DHT22;10966;51.076;3.782;2022-07-23T07:21:38;19.40;99.90
21608;DHT22;10966;51.076;3.782;2022-07-23T07:24:04;19.50;99.90
21608;DHT22;10966;51.076;3.782;2022-07-23T07:26:30;19.50;99.90
21608;DHT22;10966;51.076;3.782;2022-07-23T07:28:56;19.60;99.90
21608;DHT22;10966;51.076;3.782;2022-07-23T07:31:22;19.80;99.90
21608;DHT22;10966;51.076;3.782;2022-07-23T07:33:48;20.00;99.90
21608;DHT22;10966;51.076;3.782;2022-07-23T07:36:14;20.10;99.90
21608;DHT22;10966;51.076;3.782;2022-07-23T07:38:40;20.20;99.90
21608;DHT22;10966;51.076;3.782;2022-07-23T07:41:05;20.60;99.90
21608;DHT22;10966;51.076;3.782;2022-07-23T07:43:31;20.70;99.90
21608;DHT22;10966;51.076;3.782;2022-07-23T07:45:56;20.90;99.90
21608;DHT22;10966;51.076;3.782;2022-07-23T07:48:22;21.00;99.90
21608;DHT22;10966;51.076;3.782;2022-07-23T07:50:48;21.40;99.90
21608;DHT22;10966;51.076;3.782;2022-07-23T07:53:13;21.70;99.90
21608;DHT22;10966;51.076;3.782;2022-07-23T07:55:39;21.90;99.90
21608;DHT22;10966;51.076;3.782;2022-07-23T07:58:04;22.10;99.90
21608;DHT22;10966;51.076;3.782;2022-07-23T08:00:30;22.40;99.90
21608;DHT22;10966;51.076;3.782;2022-07-23T08:02:56;22.70;99.90
21608;DHT22;10966;51.076;3.782;2022-07-23T08:05:24;22.80;99.90
21608;DHT22;10966;51.076;3.782;2022-07-23T08:07:50;22.70;99.90
21608;DHT22;10966;51.076;3.782;2022-07-23T08:10:16;22.80;99.90
21608;DHT22;10966;51.076;3.782;2022-07-23T08:12:49;22.40;99.90
21608;DHT22;10966;51.076;3.782;2022-07-23T08:15:17;22.30;99.90
21608;DHT22;10966;51.076;3.782;2022-07-23T08:17:45;22.40;99.90
21608;DHT22;10966;51.076;3.782;2022-07-23T08:20:12;22.70;99.90
21608;DHT22;10966;51.076;3.782;2022-07-23T08:22:52;22.50;99.90
21608;DHT22;10966;51.076;3.782;2022-07-23T08:25:23;22.90;99.90
21608;DHT22;10966;51.076;3.782;2022-07-23T08:27:50;23.30;99.90
21608;DHT22;10966;51.076;3.782;2022-07-23T08:30:16;23.60;99.90
21608;DHT22;10966;51.076;3.782;2022-07-23T08:32:57;23.50;99.90
21608;DHT22;10966;51.076;3.782;2022-07-23T08:35:32;23.60;99.90
21608;DHT22;10966;51.076;3.782;2022-07-23T08:37:59;23.60;99.90
21608;DHT22;10966;51.076;3.782;2022-07-23T08:40:29;23.80;99.90
21608;DHT22;10966;51.076;3.782;2022-07-23T08:42:55;23.70;99.90
21608;DHT22;10966;51.076;3.782;2022-07-23T08:45:23;23.70;99.90
21608;DHT22;10966;51.076;3.782;2022-07-23T08:47:50;24.20;99.90
21608;DHT22;10966;51.076;3.782;2022-07-23T08:50:16;24.50;99.90
21608;DHT22;10966;51.076;3.782;2022-07-23T08:52:42;24.50;99.90
21608;DHT22;10966;51.076;3.782;2022-07-23T08:55:08;24.60;99.90
21608;DHT22;10966;51.076;3.782;2022-07-23T08:57:35;24.60;99.90
21608;DHT22;10966;51.076;3.782;2022-07-23T09:00:01;24.70;99.90
21608;DHT22;10966;51.076;3.782;2022-07-23T09:02:26;24.40;99.90
21608;DHT22;10966;51.076;3.782;2022-07-23T09:04:52;23.90;99.90
21608;DHT22;10966;51.076;3.782;2022-07-23T09:07:18;23.80;99.90
21608;DHT22;10966;51.076;3.782;2022-07-23T09:09:44;23.60;99.90
21608;DHT22;10966;51.076;3.782;2022-07-23T09:12:10;23.50;99.90
21608;DHT22;10966;51.076;3.782;2022-07-23T09:14:38;23.50;99.90
21608;DHT22;10966;51.076;3.782;2022-07-23T09:17:11;23.10;99.90
21608;DHT22;10966;51.076;3.782;2022-07-23T09:19:38;23.10;99.90
21608;DHT22;10966;51.076;3.782;2022-07-23T09:22:36;23.40;99.90
21608;DHT22;10966;51.076;3.782;2022-07-23T09:25:08;23.60;99.90
21608;DHT22;10966;51.076;3.782;2022-07-23T09:27:55;23.70;99.90
21608;DHT22;10966;51.076;3.782;2022-07-23T09:30:26;23.70;99.90
21608;DHT22;10966;51.076;3.782;2022-07-23T09:33:05;23.90;99.90
21608;DHT22;10966;51.076;3.782;2022-07-23T09:35:57;24.00;99.90
21608;DHT22;10966;51.076;3.782;2022-07-23T09:38:24;24.20;99.90
21608;DHT22;10966;51.076;3.782;2022-07-23T09:41:09;24.70;99.90
21608;DHT22;10966;51.076;3.782;2022-07-23T09:43:35;24.70;99.90
21608;DHT22;10966;51.076;3.782;2022-07-23T09:46:40;24.90;99.90
21608;DHT22;10966;51.076;3.782;2022-07-23T09:49:17;24.90;99.90
21608;DHT22;10966;51.076;3.782;2022-07-23T09:51:54;24.70;99.90
21608;DHT22;10966;51.076;3.782;2022-07-23T09:54:25;24.80;99.90
21608;DHT22;10966;51.076;3.782;2022-07-23T09:56:53;24.60;99.90
21608;DHT22;10966;51.076;3.782;2022-07-23T09:59:23;24.40;99.90
21608;DHT22;10966;51.076;3.782;2022-07-23T10:01:50;24.50;99.90
21608;DHT22;10966;51.076;3.782;2022-07-23T10:04:17;24.70;99.90
21608;DHT22;10966;51.076;3.782;2022-07-23T10:06:43;24.90;99.90
21608;DHT22;10966;51.076;3.782;2022-07-23T10:09:12;24.50;99.90
21608;DHT22;10966;51.076;3.782;2022-07-23T10:11:38;24.60;99.90
21608;DHT22;10966;51.076;3.782;2022-07-23T10:14:04;24.60;99.90
21608;DHT22;10966;51.076;3.782;2022-07-23T10:16:31;24.50;99.90
21608;DHT22;10966;51.076;3.782;2022-07-23T10:18:57;24.20;99.90
21608;DHT22;10966;51.076;3.782;2022-07-23T10:21:46;24.20;99.90
21608;DHT22;10966;51.076;3.782;2022-07-23T10:30:07;24.80;99.90
21608;DHT22;10966;51.076;3.782;2022-07-23T10:38:20;25.20;99.90
21608;DHT22;10966;51.076;3.782;2022-07-23T10:41:02;25.00;99.90
21608;DHT22;10966;51.076;3.782;2022-07-23T10:43:28;24.70;99.90
21608;DHT22;10966;51.076;3.782;2022-07-23T10:45:55;24.60;99.90
21608;DHT22;10966;51.076;3.782;2022-07-23T10:48:26;24.40;99.90
21608;DHT22;10966;51.076;3.782;2022-07-23T10:51:12;24.10;99.90
21608;DHT22;10966;51.076;3.782;2022-07-23T10:53:59;24.40;99.90
21608;DHT22;10966;51.076;3.782;2022-07-23T10:56:50;24.60;99.90
21608;DHT22;10966;51.076;3.782;2022-07-23T10:59:30;24.80;99.90
21608;DHT22;10966;51.076;3.782;2022-07-23T11:02:21;24.90;99.90
21608;DHT22;10966;51.076;3.782;2022-07-23T11:04:52;25.10;99.90
21608;DHT22;10966;51.076;3.782;2022-07-23T11:07:18;25.30;99.90
21608;DHT22;10966;51.076;3.782;2022-07-23T11:09:44;25.50;99.90
21608;DHT22;10966;51.076;3.782;2022-07-23T11:15:08;25.90;99.90
21608;DHT22;10966;51.076;3.782;2022-07-23T11:22:39;25.90;99.90
21608;DHT22;10966;51.076;3.782;2022-07-23T11:25:06;25.60;99.90
21608;DHT22;10966;51.076;3.782;2022-07-23T11:27:38;25.60;99.90
21608;DHT22;10966;51.076;3.782;2022-07-23T11:30:05;25.70;99.90
21608;DHT22;10966;51.076;3.782;2022-07-23T11:32:40;25.60;99.90
21608;DHT22;10966;51.076;3.782;2022-07-23T11:37:45;25.80;99.90
21608;DHT22;10966;51.076;3.782;2022-07-23T11:40:14;25.90;99.90
21608;DHT22;10966;51.076;3.782;2022-07-23T11:43:00;26.00;99.90
21608;DHT22;10966;51.076;3.782;2022-07-23T11:45:33;25.90;99.90
21608;DHT22;10966;51.076;3.782;2022-07-23T11:47:59;26.20;99.90
21608;DHT22;10966;51.076;3.782;2022-07-23T11:50:25;26.30;99.90
21608;DHT22;10966;51.076;3.782;2022-07-23T11:52:52;26.20;99.90
21608;DHT22;10966;51.076;3.782;2022-07-23T11:55:18;26.20;99.90
21608;DHT22;10966;51.076;3.782;2022-07-23T11:57:44;26.30;99.90
21608;DHT22;10966;51.076;3.782;2022-07-23T12:00:25;26.30;99.90
21608;DHT22;10966;51.076;3.782;2022-07-23T12:02:57;26.60;99.90
21608;DHT22;10966;51.076;3.782;2022-07-23T12:05:30;26.60;99.90
21608;DHT22;10966;51.076;3.782;2022-07-23T12:07:57;26.60;99.90
21608;DHT22;10966;51.076;3.782;2022-07-23T12:10:30;26.80;99.90
21608;DHT22;10966;51.076;3.782;2022-07-23T12:12:58;26.90;99.90
21608;DHT22;10966;51.076;3.782;2022-07-23T12:17:52;27.30;99.90
21608;DHT22;10966;51.076;3.782;2022-07-23T12:20:28;27.50;99.90
21608;DHT22;10966;51.076;3.782;2022-07-23T12:23:03;27.40;99.90
21608;DHT22;10966;51.076;3.782;2022-07-23T12:25:38;27.30;99.90
21608;DHT22;10966;51.076;3.782;2022-07-23T12:28:19;27.70;99.90
21608;DHT22;10966;51.076;3.782;2022-07-23T12:30:52;27.70;99.90
21608;DHT22;10966;51.076;3.782;2022-07-23T12:35:53;28.30;99.90
21608;DHT22;10966;51.076;3.782;2022-07-23T12:38:21;28.80;99.90
21608;DHT22;10966;51.076;3.782;2022-07-23T12:40:54;29.00;99.90
21608;DHT22;10966;51.076;3.782;2022-07-23T12:43:27;28.80;99.90
21608;DHT22;10966;51.076;3.782;2022-07-23T12:48:38;28.40;99.90
21608;DHT22;10966;51.076;3.782;2022-07-23T12:51:08;28.00;99.90
21608;DHT22;10966;51.076;3.782;2022-07-23T12:53:46;28.10;99.90
21608;DHT22;10966;51.076;3.782;2022-07-23T12:56:16;28.30;99.90
21608;DHT22;10966;51.076;3.782;2022-07-23T12:58:51;27.80;99.90
21608;DHT22;10966;51.076;3.782;2022-07-23T13:01:28;27.90;99.90
21608;DHT22;10966;51.076;3.782;2022-07-23T13:06:25;29.50;99.90
21608;DHT22;10966;51.076;3.782;2022-07-23T13:08:51;29.30;99.90
21608;DHT22;10966;51.076;3.782;2022-07-23T13:11:17;29.10;99.90
21608;DHT22;10966;51.076;3.782;2022-07-23T13:13:42;28.90;99.90
21608;DHT22;10966;51.076;3.782;2022-07-23T13:16:08;29.00;99.90
21608;DHT22;10966;51.076;3.782;2022-07-23T13:18:34;29.00;99.90
21608;DHT22;10966;51.076;3.782;2022-07-23T13:20:59;29.50;99.90
21608;DHT22;10966;51.076;3.782;2022-07-23T13:23:26;29.80;99.90
21608;DHT22;10966;51.076;3.782;2022-07-23T13:25:52;30.70;99.90
21608;DHT22;10966;51.076;3.782;2022-07-23T13:28:18;31.90;97.90
21608;DHT22;10966;51.076;3.782;2022-07-23T13:30:45;32.50;95.00
21608;DHT22;10966;51.076;3.782;2022-07-23T13:33:11;32.20;94.30
21608;DHT22;10966;51.076;3.782;2022-07-23T13:35:37;32.00;93.90
21608;DHT22;10966;51.076;3.782;2022-07-23T13:38:04;31.70;94.00
21608;DHT22;10966;51.076;3.782;2022-07-23T13:40:38;31.40;93.00
21608;DHT22;10966;51.076;3.782;2022-07-23T13:43:06;30.10;94.10
21608;DHT22;10966;51.076;3.782;2022-07-23T13:45:33;30.10;94.80
21608;DHT22;10966;51.076;3.782;2022-07-23T13:47:58;30.40;95.00
21608;DHT22;10966;51.076;3.782;2022-07-23T13:50:24;30.80;93.40
21608;DHT22;10966;51.076;3.782;2022-07-23T13:52:50;31.20;94.50
21608;DHT22;10966;51.076;3.782;2022-07-23T13:55:16;33.20;90.70
21608;DHT22;10966;51.076;3.782;2022-07-23T13:57:42;34.70;86.70
21608;DHT22;10966;51.076;3.782;2022-07-23T14:00:09;35.30;82.30
21608;DHT22;10966;51.076;3.782;2022-07-23T14:02:37;34.90;79.50
21608;DHT22;10966;51.076;3.782;2022-07-23T14:05:06;35.70;76.00
21608;DHT22;10966;51.076;3.782;2022-07-23T14:07:32;34.80;76.10
21608;DHT22;10966;51.076;3.782;2022-07-23T14:09:58;35.00;76.00
21608;DHT22;10966;51.076;3.782;2022-07-23T14:12:23;34.80;75.90
21608;DHT22;10966;51.076;3.782;2022-07-23T14:14:49;34.70;75.30
21608;DHT22;10966;51.076;3.782;2022-07-23T14:17:15;33.20;78.90
21608;DHT22;10966;51.076;3.782;2022-07-23T14:19:41;32.80;81.70
21608;DHT22;10966;51.076;3.782;2022-07-23T14:22:07;33.10;80.60
21608;DHT22;10966;51.076;3.782;2022-07-23T14:24:33;32.80;79.20
21608;DHT22;10966;51.076;3.782;2022-07-23T14:27:00;32.90;79.60
21608;DHT22;10966;51.076;3.782;2022-07-23T14:29:27;32.90;79.70
21608;DHT22;10966;51.076;3.782;2022-07-23T14:31:52;31.90;81.90
21608;DHT22;10966;51.076;3.782;2022-07-23T14:34:18;31.30;84.00
21608;DHT22;10966;51.076;3.782;2022-07-23T14:36:44;31.20;84.30
21608;DHT22;10966;51.076;3.782;2022-07-23T14:39:09;31.80;86.50
21608;DHT22;10966;51.076;3.782;2022-07-23T14:41:38;31.30;84.50
21608;DHT22;10966;51.076;3.782;2022-07-23T14:44:03;30.60;84.60
21608;DHT22;10966;51.076;3.782;2022-07-23T14:46:30;29.70;88.40
21608;DHT22;10966;51.076;3.782;2022-07-23T14:48:56;30.30;88.90
21608;DHT22;10966;51.076;3.782;2022-07-23T14:51:21;31.60;85.60
21608;DHT22;10966;51.076;3.782;2022-07-23T14:53:47;32.40;85.20
21608;DHT22;10966;51.076;3.782;2022-07-23T14:56:13;32.60;82.40
21608;DHT22;10966;51.076;3.782;2022-07-23T14:58:39;33.30;81.60
21608;DHT22;10966;51.076;3.782;2022-07-23T15:01:06;33.80;79.30
21608;DHT22;10966;51.076;3.782;2022-07-23T15:03:32;33.90;80.00
21608;DHT22;10966;51.076;3.782;2022-07-23T15:05:58;34.10;79.10
21608;DHT22;10966;51.076;3.782;2022-07-23T15:08:24;34.60;79.60
21608;DHT22;10966;51.076;3.782;2022-07-23T15:10:50;35.50;75.00
21608;DHT22;10966;51.076;3.782;2022-07-23T15:13:16;35.70;73.20
21608;DHT22;10966;51.076;3.782;2022-07-23T15:15:42;36.90;72.00
21608;DHT22;10966;51.076;3.782;2022-07-23T15:18:07;37.00;68.60
21608;DHT22;10966;51.076;3.782;2022-07-23T15:20:33;36.40;69.60
21608;DHT22;10966;51.076;3.782;2022-07-23T15:22:59;35.30;69.40
21608;DHT22;10966;51.076;3.782;2022-07-23T15:25:24;34.40;69.90
21608;DHT22;10966;51.076;3.782;2022-07-23T15:27:50;33.40;73.70
21608;DHT22;10966;51.076;3.782;2022-07-23T15:30:16;32.00;77.80
21608;DHT22;10966;51.076;3.782;2022-07-23T15:32:41;32.00;80.10
21608;DHT22;10966;51.076;3.782;2022-07-23T15:35:07;32.60;77.40
21608;DHT22;10966;51.076;3.782;2022-07-23T15:37:34;33.00;75.90
21608;DHT22;10966;51.076;3.782;2022-07-23T15:40:00;34.10;74.40
21608;DHT22;10966;51.076;3.782;2022-07-23T15:42:26;33.60;74.70
21608;DHT22;10966;51.076;3.782;2022-07-23T15:44:52;33.60;74.80
21608;DHT22;10966;51.076;3.782;2022-07-23T15:47:18;33.60;74.40
21608;DHT22;10966;51.076;3.782;2022-07-23T15:49:45;33.30;75.90
21608;DHT22;10966;51.076;3.782;2022-07-23T15:52:11;32.70;76.80
21608;DHT22;10966;51.076;3.782;2022-07-23T15:54:38;32.80;77.60
21608;DHT22;10966;51.076;3.782;2022-07-23T15:57:04;32.20;77.80
21608;DHT22;10966;51.076;3.782;2022-07-23T15:59:31;32.20;78.60
21608;DHT22;10966;51.076;3.782;2022-07-23T16:01:57;33.30;76.50
21608;DHT22;10966;51.076;3.782;2022-07-23T16:04:24;34.80;73.00